sensor_id;sensor_type;location;lat;lon;timestamp;P1;durP1;ratioP1;P2;durP2;ratioP2
33459;SDS011;19795;53.160;6.612;2022-12-17T09:08:40;56.05;;;31.58;;
33459;SDS011;19795;53.160;6.612;2022-12-17T09:13:56;59.15;;;30.45;;
33459;SDS011;19795;53.160;6.612;2022-12-17T09:16:40;57.63;;;32.28;;
33459;SDS011;19795;53.160;6.612;2022-12-17T09:19:24;60.53;;;30.40;;
33459;SDS011;19795;53.160;6.612;2022-12-17T09:22:08;52.97;;;29.02;;
33459;SDS011;19795;53.160;6.612;2022-12-17T09:24:52;50.25;;;28.15;;
33459;SDS011;19795;53.160;6.612;2022-12-17T09:27:36;51.55;;;27.92;;
33459;SDS011;19795;53.160;6.612;2022-12-17T09:30:20;51.75;;;26.52;;
33459;SDS011;19795;53.160;6.612;2022-12-17T09:33:04;51.60;;;29.02;;
33459;SDS011;19795;53.160;6.612;2022-12-17T09:35:48;52.75;;;26.73;;
33459;SDS011;19795;53.160;6.612;2022-12-17T09:38:32;53.50;;;29.27;;
33459;SDS011;19795;53.160;6.612;2022-12-17T09:44:05;52.63;;;29.55;;
33459;SDS011;19795;53.160;6.612;2022-12-17T09:47:22;55.67;;;27.55;;
33459;SDS011;19795;53.160;6.612;2022-12-17T09:50:21;58.85;;;28.88;;
33459;SDS011;19795;53.160;6.612;2022-12-17T09:53:08;56.25;;;28.33;;
33459;SDS011;19795;53.160;6.612;2022-12-17T09:56:10;56.33;;;27.95;;
33459;SDS011;19795;53.160;6.612;2022-12-17T09:58:56;57.08;;;28.13;;
33459;SDS011;19795;53.160;6.612;2022-12-17T10:01:40;51.53;;;27.38;;
33459;SDS011;19795;53.160;6.612;2022-12-17T10:04:36;50.83;;;25.58;;
33459;SDS011;19795;53.160;6.612;2022-12-17T10:07:25;55.38;;;27.92;;
33459;SDS011;19795;53.160;6.612;2022-12-17T10:10:18;50.53;;;26.67;;
33459;SDS011;19795;53.160;6.612;2022-12-17T10:13:11;49.17;;;25.08;;
33459;SDS011;19795;53.160;6.612;2022-12-17T10:16:01;41.20;;;19.27;;
33459;SDS011;19795;53.160;6.612;2022-12-17T10:18:56;50.80;;;26.33;;
33459;SDS011;19795;53.160;6.612;2022-12-17T10:21:40;53.92;;;26.90;;
33459;SDS011;19795;53.160;6.612;2022-12-17T10:24:24;52.90;;;26.48;;
33459;SDS011;19795;53.160;6.612;2022-12-17T10:27:10;49.92;;;26.23;;
33459;SDS011;19795;53.160;6.612;2022-12-17T10:29:58;54.75;;;27.92;;
33459;SDS011;19795;53.160;6.612;2022-12-17T10:32:42;49.25;;;24.42;;
33459;SDS011;19795;53.160;6.612;2022-12-17T10:35:32;48.33;;;26.42;;
33459;SDS011;19795;53.160;6.612;2022-12-17T10:38:21;51.40;;;25.13;;
33459;SDS011;19795;53.160;6.612;2022-12-17T10:41:44;49.08;;;24.13;;
33459;SDS011;19795;53.160;6.612;2022-12-17T10:47:14;48.67;;;23.33;;
33459;SDS011;19795;53.160;6.612;2022-12-17T10:50:01;54.40;;;27.35;;
33459;SDS011;19795;53.160;6.612;2022-12-17T10:52:48;51.33;;;27.05;;
33459;SDS011;19795;53.160;6.612;2022-12-17T10:55:33;45.97;;;24.75;;
33459;SDS011;19795;53.160;6.612;2022-12-17T10:58:20;55.05;;;25.35;;
33459;SDS011;19795;53.160;6.612;2022-12-17T11:01:06;52.95;;;27.67;;
33459;SDS011;19795;53.160;6.612;2022-12-17T11:03:55;52.35;;;26.70;;
33459;SDS011;19795;53.160;6.612;2022-12-17T11:06:47;54.25;;;26.40;;
33459;SDS011;19795;53.160;6.612;2022-12-17T11:09:44;49.13;;;26.05;;
33459;SDS011;19795;53.160;6.612;2022-12-17T11:12:55;53.35;;;27.20;;
33459;SDS011;19795;53.160;6.612;2022-12-17T11:18:43;59.65;;;28.23;;
33459;SDS011;19795;53.160;6.612;2022-12-17T11:21:44;52.85;;;28.40;;
33459;SDS011;19795;53.160;6.612;2022-12-17T11:25:20;55.67;;;28.70;;
33459;SDS011;19795;53.160;6.612;2022-12-17T11:27:49;50.35;;;26.77;;
33459;SDS011;19795;53.160;6.612;2022-12-17T11:33:40;51.10;;;27.92;;
33459;SDS011;19795;53.160;6.612;2022-12-17T11:36:45;52.40;;;25.50;;
33459;SDS011;19795;53.160;6.612;2022-12-17T11:39:42;47.45;;;24.77;;
33459;SDS011;19795;53.160;6.612;2022-12-17T11:42:41;47.80;;;24.17;;
33459;SDS011;19795;53.160;6.612;2022-12-17T11:45:56;57.97;;;28.00;;
33459;SDS011;19795;53.160;6.612;2022-12-17T11:48:53;53.60;;;26.15;;
33459;SDS011;19795;53.160;6.612;2022-12-17T11:51:40;50.90;;;27.58;;
33459;SDS011;19795;53.160;6.612;2022-12-17T11:58:01;61.13;;;28.45;;
33459;SDS011;19795;53.160;6.612;2022-12-17T12:04:02;56.30;;;27.42;;
33459;SDS011;19795;53.160;6.612;2022-12-17T12:07:27;58.55;;;26.60;;
33459;SDS011;19795;53.160;6.612;2022-12-17T12:10:31;56.08;;;26.92;;
33459;SDS011;19795;53.160;6.612;2022-12-17T12:13:22;55.72;;;27.80;;
33459;SDS011;19795;53.160;6.612;2022-12-17T12:25:33;56.00;;;29.23;;
33459;SDS011;19795;53.160;6.612;2022-12-17T12:28:43;48.13;;;23.70;;
33459;SDS011;19795;53.160;6.612;2022-12-17T12:31:58;54.92;;;27.00;;
33459;SDS011;19795;53.160;6.612;2022-12-17T12:34:45;56.65;;;25.95;;
33459;SDS011;19795;53.160;6.612;2022-12-17T12:37:29;61.08;;;27.20;;
33459;SDS011;19795;53.160;6.612;2022-12-17T12:40:20;60.70;;;29.00;;
33459;SDS011;19795;53.160;6.612;2022-12-17T12:43:37;56.55;;;28.70;;
33459;SDS011;19795;53.160;6.612;2022-12-17T12:46:35;57.97;;;26.92;;
33459;SDS011;19795;53.160;6.612;2022-12-17T12:52:13;59.33;;;27.98;;
33459;SDS011;19795;53.160;6.612;2022-12-17T12:55:03;59.15;;;27.73;;
33459;SDS011;19795;53.160;6.612;2022-12-17T12:57:55;60.40;;;29.23;;
33459;SDS011;19795;53.160;6.612;2022-12-17T13:03:29;55.72;;;25.92;;
33459;SDS011;19795;53.160;6.612;2022-12-17T13:06:46;58.88;;;29.63;;
33459;SDS011;19795;53.160;6.612;2022-12-17T13:11:41;64.00;;;28.98;;
33459;SDS011;19795;53.160;6.612;2022-12-17T13:14:10;63.33;;;29.80;;
33459;SDS011;19795;53.160;6.612;2022-12-17T13:19:20;61.25;;;29.15;;
33459;SDS011;19795;53.160;6.612;2022-12-17T13:22:10;59.90;;;28.60;;
33459;SDS011;19795;53.160;6.612;2022-12-17T13:24:40;65.63;;;30.13;;
33459;SDS011;19795;53.160;6.612;2022-12-17T13:38:35;59.83;;;28.85;;
33459;SDS011;19795;53.160;6.612;2022-12-17T13:43:54;57.85;;;28.73;;
33459;SDS011;19795;53.160;6.612;2022-12-17T13:46:26;58.92;;;27.58;;
33459;SDS011;19795;53.160;6.612;2022-12-17T13:48:58;56.38;;;28.48;;
33459;SDS011;19795;53.160;6.612;2022-12-17T13:51:26;61.53;;;28.02;;
33459;SDS011;19795;53.160;6.612;2022-12-17T13:53:55;63.05;;;31.73;;
33459;SDS011;19795;53.160;6.612;2022-12-17T13:56:29;60.60;;;27.90;;
33459;SDS011;19795;53.160;6.612;2022-12-17T13:58:57;63.65;;;28.90;;
33459;SDS011;19795;53.160;6.612;2022-12-17T14:01:26;54.90;;;25.17;;
33459;SDS011;19795;53.160;6.612;2022-12-17T14:03:54;59.08;;;28.00;;
33459;SDS011;19795;53.160;6.612;2022-12-17T14:06:22;65.63;;;29.02;;
33459;SDS011;19795;53.160;6.612;2022-12-17T14:08:50;73.40;;;31.23;;
33459;SDS011;19795;53.160;6.612;2022-12-17T14:11:19;63.78;;;28.90;;
33459;SDS011;19795;53.160;6.612;2022-12-17T14:14:07;60.90;;;28.13;;
33459;SDS011;19795;53.160;6.612;2022-12-17T14:16:40;61.97;;;27.88;;
33459;SDS011;19795;53.160;6.612;2022-12-17T14:19:07;63.42;;;30.23;;
33459;SDS011;19795;53.160;6.612;2022-12-17T14:21:34;63.00;;;26.95;;
33459;SDS011;19795;53.160;6.612;2022-12-17T14:24:01;65.00;;;28.70;;
33459;SDS011;19795;53.160;6.612;2022-12-17T14:26:28;68.57;;;29.88;;
33459;SDS011;19795;53.160;6.612;2022-12-17T14:28:54;62.70;;;27.67;;
33459;SDS011;19795;53.160;6.612;2022-12-17T14:31:24;62.67;;;28.52;;
33459;SDS011;19795;53.160;6.612;2022-12-17T14:33:59;66.03;;;28.73;;
33459;SDS011;19795;53.160;6.612;2022-12-17T14:36:25;63.17;;;26.48;;
33459;SDS011;19795;53.160;6.612;2022-12-17T14:41:23;60.25;;;27.88;;
33459;SDS011;19795;53.160;6.612;2022-12-17T14:44:15;64.45;;;31.20;;
33459;SDS011;19795;53.160;6.612;2022-12-17T14:47:13;64.35;;;30.13;;
33459;SDS011;19795;53.160;6.612;2022-12-17T14:52:43;65.78;;;30.83;;
33459;SDS011;19795;53.160;6.612;2022-12-17T14:55:22;66.97;;;30.43;;
33459;SDS011;19795;53.160;6.612;2022-12-17T14:57:53;68.70;;;32.20;;
33459;SDS011;19795;53.160;6.612;2022-12-17T15:00:31;61.85;;;28.77;;
33459;SDS011;19795;53.160;6.612;2022-12-17T15:02:57;61.30;;;29.25;;
33459;SDS011;19795;53.160;6.612;2022-12-17T15:05:26;66.70;;;29.33;;
33459;SDS011;19795;53.160;6.612;2022-12-17T15:07:52;65.60;;;29.77;;
33459;SDS011;19795;53.160;6.612;2022-12-17T15:13:41;70.95;;;30.27;;
33459;SDS011;19795;53.160;6.612;2022-12-17T15:16:12;68.15;;;28.73;;
33459;SDS011;19795;53.160;6.612;2022-12-17T15:18:49;66.50;;;28.90;;
33459;SDS011;19795;53.160;6.612;2022-12-17T15:34:28;73.88;;;30.27;;
33459;SDS011;19795;53.160;6.612;2022-12-17T15:36:53;72.60;;;31.20;;
33459;SDS011;19795;53.160;6.612;2022-12-17T15:39:19;72.45;;;30.13;;
33459;SDS011;19795;53.160;6.612;2022-12-17T15:41:45;67.82;;;30.17;;
33459;SDS011;19795;53.160;6.612;2022-12-17T15:46:55;76.07;;;27.98;;
33459;SDS011;19795;53.160;6.612;2022-12-17T15:49:20;71.30;;;29.92;;
33459;SDS011;19795;53.160;6.612;2022-12-17T15:51:46;72.07;;;27.17;;
33459;SDS011;19795;53.160;6.612;2022-12-17T15:54:14;69.90;;;30.65;;
33459;SDS011;19795;53.160;6.612;2022-12-17T15:56:40;75.10;;;32.10;;
33459;SDS011;19795;53.160;6.612;2022-12-17T15:59:09;75.80;;;31.05;;
33459;SDS011;19795;53.160;6.612;2022-12-17T16:01:35;70.25;;;30.38;;
33459;SDS011;19795;53.160;6.612;2022-12-17T16:07:23;73.10;;;31.35;;
33459;SDS011;19795;53.160;6.612;2022-12-17T16:09:48;80.10;;;31.73;;
33459;SDS011;19795;53.160;6.612;2022-12-17T16:12:14;76.57;;;31.55;;
33459;SDS011;19795;53.160;6.612;2022-12-17T16:14:40;65.05;;;26.83;;
33459;SDS011;19795;53.160;6.612;2022-12-17T16:17:06;78.80;;;31.17;;
33459;SDS011;19795;53.160;6.612;2022-12-17T16:22:14;82.45;;;31.80;;
33459;SDS011;19795;53.160;6.612;2022-12-17T16:24:40;72.82;;;29.00;;
33459;SDS011;19795;53.160;6.612;2022-12-17T16:27:06;68.43;;;28.05;;
33459;SDS011;19795;53.160;6.612;2022-12-17T16:29:31;70.15;;;30.10;;
33459;SDS011;19795;53.160;6.612;2022-12-17T16:31:58;78.65;;;32.25;;
33459;SDS011;19795;53.160;6.612;2022-12-17T16:34:24;76.80;;;30.02;;
33459;SDS011;19795;53.160;6.612;2022-12-17T16:36:49;73.15;;;29.23;;
33459;SDS011;19795;53.160;6.612;2022-12-17T16:39:15;80.55;;;33.47;;
33459;SDS011;19795;53.160;6.612;2022-12-17T16:41:43;73.18;;;30.83;;
33459;SDS011;19795;53.160;6.612;2022-12-17T16:44:09;73.90;;;28.92;;
33459;SDS011;19795;53.160;6.612;2022-12-17T16:46:35;68.10;;;28.55;;
33459;SDS011;19795;53.160;6.612;2022-12-17T16:49:07;67.30;;;28.42;;
33459;SDS011;19795;53.160;6.612;2022-12-17T16:51:38;77.18;;;31.58;;
33459;SDS011;19795;53.160;6.612;2022-12-17T16:54:07;64.88;;;25.45;;
33459;SDS011;19795;53.160;6.612;2022-12-17T16:56:37;80.55;;;31.75;;
33459;SDS011;19795;53.160;6.612;2022-12-17T16:59:03;77.68;;;30.13;;
33459;SDS011;19795;53.160;6.612;2022-12-17T17:01:31;64.85;;;26.83;;
33459;SDS011;19795;53.160;6.612;2022-12-17T17:03:58;70.82;;;29.27;;
33459;SDS011;19795;53.160;6.612;2022-12-17T17:06:23;69.47;;;31.42;;
33459;SDS011;19795;53.160;6.612;2022-12-17T17:08:49;68.93;;;27.30;;
33459;SDS011;19795;53.160;6.612;2022-12-17T17:11:16;66.03;;;28.65;;
33459;SDS011;19795;53.160;6.612;2022-12-17T17:13:47;65.97;;;27.13;;
33459;SDS011;19795;53.160;6.612;2022-12-17T17:16:14;74.07;;;28.52;;
33459;SDS011;19795;53.160;6.612;2022-12-17T17:18:39;71.70;;;30.92;;
33459;SDS011;19795;53.160;6.612;2022-12-17T17:21:12;62.03;;;25.05;;
33459;SDS011;19795;53.160;6.612;2022-12-17T17:23:48;76.28;;;28.60;;
33459;SDS011;19795;53.160;6.612;2022-12-17T17:26:26;66.82;;;26.75;;
33459;SDS011;19795;53.160;6.612;2022-12-17T17:28:53;74.70;;;31.42;;
33459;SDS011;19795;53.160;6.612;2022-12-17T17:31:19;76.28;;;30.95;;
33459;SDS011;19795;53.160;6.612;2022-12-17T17:33:45;70.32;;;27.55;;
33459;SDS011;19795;53.160;6.612;2022-12-17T17:36:22;72.82;;;30.30;;
33459;SDS011;19795;53.160;6.612;2022-12-17T17:38:50;70.45;;;27.80;;
33459;SDS011;19795;53.160;6.612;2022-12-17T17:41:18;73.40;;;29.08;;
33459;SDS011;19795;53.160;6.612;2022-12-17T17:43:46;62.67;;;25.42;;
33459;SDS011;19795;53.160;6.612;2022-12-17T17:46:17;63.55;;;26.52;;
33459;SDS011;19795;53.160;6.612;2022-12-17T17:48:43;71.25;;;27.17;;
33459;SDS011;19795;53.160;6.612;2022-12-17T17:51:11;72.75;;;28.27;;
33459;SDS011;19795;53.160;6.612;2022-12-17T17:53:39;68.13;;;27.27;;
33459;SDS011;19795;53.160;6.612;2022-12-17T17:56:15;64.40;;;26.20;;
33459;SDS011;19795;53.160;6.612;2022-12-17T17:58:44;66.53;;;26.38;;
33459;SDS011;19795;53.160;6.612;2022-12-17T18:01:14;65.22;;;25.73;;
33459;SDS011;19795;53.160;6.612;2022-12-17T18:03:45;71.20;;;28.52;;
33459;SDS011;19795;53.160;6.612;2022-12-17T18:06:11;64.47;;;27.23;;
33459;SDS011;19795;53.160;6.612;2022-12-17T18:08:38;73.15;;;29.17;;
33459;SDS011;19795;53.160;6.612;2022-12-17T18:11:06;72.25;;;30.00;;
33459;SDS011;19795;53.160;6.612;2022-12-17T18:13:36;78.00;;;32.53;;
33459;SDS011;19795;53.160;6.612;2022-12-17T18:18:59;70.45;;;30.10;;
33459;SDS011;19795;53.160;6.612;2022-12-17T18:21:26;82.30;;;32.38;;
33459;SDS011;19795;53.160;6.612;2022-12-17T18:23:54;79.45;;;31.58;;
33459;SDS011;19795;53.160;6.612;2022-12-17T18:26:37;66.90;;;24.35;;
33459;SDS011;19795;53.160;6.612;2022-12-17T18:29:16;78.68;;;30.27;;
33459;SDS011;19795;53.160;6.612;2022-12-17T18:31:44;78.45;;;29.92;;
33459;SDS011;19795;53.160;6.612;2022-12-17T18:34:11;80.78;;;29.15;;
33459;SDS011;19795;53.160;6.612;2022-12-17T18:36:39;72.30;;;28.77;;
33459;SDS011;19795;53.160;6.612;2022-12-17T18:39:09;79.35;;;31.67;;
33459;SDS011;19795;53.160;6.612;2022-12-17T18:41:46;82.72;;;30.90;;
33459;SDS011;19795;53.160;6.612;2022-12-17T18:44:31;73.20;;;31.55;;
33459;SDS011;19795;53.160;6.612;2022-12-17T18:46:59;82.20;;;30.88;;
33459;SDS011;19795;53.160;6.612;2022-12-17T18:49:25;76.70;;;31.33;;
33459;SDS011;19795;53.160;6.612;2022-12-17T18:51:52;79.40;;;30.10;;
33459;SDS011;19795;53.160;6.612;2022-12-17T18:54:19;78.70;;;30.70;;
33459;SDS011;19795;53.160;6.612;2022-12-17T18:56:47;82.63;;;33.40;;
33459;SDS011;19795;53.160;6.612;2022-12-17T18:59:14;78.75;;;32.47;;
33459;SDS011;19795;53.160;6.612;2022-12-17T19:01:42;83.15;;;31.40;;
33459;SDS011;19795;53.160;6.612;2022-12-17T19:04:11;76.15;;;31.30;;
33459;SDS011;19795;53.160;6.612;2022-12-17T19:06:38;70.45;;;30.58;;
33459;SDS011;19795;53.160;6.612;2022-12-17T19:09:05;78.57;;;32.10;;
33459;SDS011;19795;53.160;6.612;2022-12-17T19:11:33;78.13;;;34.25;;
33459;SDS011;19795;53.160;6.612;2022-12-17T19:14:00;73.93;;;30.98;;
33459;SDS011;19795;53.160;6.612;2022-12-17T19:16:27;78.13;;;34.33;;
33459;SDS011;19795;53.160;6.612;2022-12-17T19:18:54;77.80;;;32.20;;
33459;SDS011;19795;53.160;6.612;2022-12-17T19:21:22;66.45;;;28.80;;
33459;SDS011;19795;53.160;6.612;2022-12-17T19:23:53;76.30;;;32.20;;
33459;SDS011;19795;53.160;6.612;2022-12-17T19:26:21;72.43;;;33.55;;
33459;SDS011;19795;53.160;6.612;2022-12-17T19:28:48;68.15;;;30.30;;
33459;SDS011;19795;53.160;6.612;2022-12-17T19:31:15;65.85;;;27.05;;
33459;SDS011;19795;53.160;6.612;2022-12-17T19:33:43;76.65;;;32.08;;
33459;SDS011;19795;53.160;6.612;2022-12-17T19:36:19;66.85;;;30.23;;
33459;SDS011;19795;53.160;6.612;2022-12-17T19:38:45;65.00;;;29.90;;
33459;SDS011;19795;53.160;6.612;2022-12-17T19:41:16;71.55;;;34.17;;
33459;SDS011;19795;53.160;6.612;2022-12-17T19:43:43;70.97;;;33.58;;
33459;SDS011;19795;53.160;6.612;2022-12-17T19:46:11;66.78;;;30.63;;
33459;SDS011;19795;53.160;6.612;2022-12-17T19:48:38;66.47;;;32.20;;
33459;SDS011;19795;53.160;6.612;2022-12-17T19:51:05;68.13;;;32.22;;
33459;SDS011;19795;53.160;6.612;2022-12-17T19:53:32;64.40;;;31.20;;
33459;SDS011;19795;53.160;6.612;2022-12-17T19:58:40;66.45;;;31.38;;
33459;SDS011;19795;53.160;6.612;2022-12-17T20:03:33;69.43;;;32.85;;
33459;SDS011;19795;53.160;6.612;2022-12-17T20:05:59;70.03;;;31.77;;
33459;SDS011;19795;53.160;6.612;2022-12-17T20:08:25;70.28;;;34.03;;
33459;SDS011;19795;53.160;6.612;2022-12-17T20:10:51;67.15;;;31.35;;
33459;SDS011;19795;53.160;6.612;2022-12-17T20:13:16;63.05;;;32.17;;
33459;SDS011;19795;53.160;6.612;2022-12-17T20:15:42;65.45;;;31.65;;
33459;SDS011;19795;53.160;6.612;2022-12-17T20:18:07;70.90;;;33.35;;
33459;SDS011;19795;53.160;6.612;2022-12-17T20:20:33;66.78;;;31.08;;
33459;SDS011;19795;53.160;6.612;2022-12-17T20:22:59;71.13;;;32.95;;
33459;SDS011;19795;53.160;6.612;2022-12-17T20:25:24;66.38;;;33.28;;
33459;SDS011;19795;53.160;6.612;2022-12-17T20:27:50;66.28;;;32.50;;
33459;SDS011;19795;53.160;6.612;2022-12-17T20:30:16;69.45;;;33.63;;
33459;SDS011;19795;53.160;6.612;2022-12-17T20:32:43;51.35;;;25.35;;
33459;SDS011;19795;53.160;6.612;2022-12-17T20:35:09;72.50;;;34.78;;
33459;SDS011;19795;53.160;6.612;2022-12-17T20:37:34;64.07;;;32.50;;
33459;SDS011;19795;53.160;6.612;2022-12-17T20:40:00;73.35;;;37.95;;
33459;SDS011;19795;53.160;6.612;2022-12-17T20:42:26;67.28;;;33.15;;
33459;SDS011;19795;53.160;6.612;2022-12-17T20:44:51;70.78;;;35.35;;
33459;SDS011;19795;53.160;6.612;2022-12-17T20:47:17;74.20;;;38.13;;
33459;SDS011;19795;53.160;6.612;2022-12-17T20:49:42;70.63;;;34.90;;
33459;SDS011;19795;53.160;6.612;2022-12-17T20:52:08;66.15;;;33.97;;
33459;SDS011;19795;53.160;6.612;2022-12-17T20:54:34;71.97;;;35.92;;
33459;SDS011;19795;53.160;6.612;2022-12-17T20:57:00;63.85;;;32.58;;
33459;SDS011;19795;53.160;6.612;2022-12-17T20:59:25;82.22;;;40.40;;
33459;SDS011;19795;53.160;6.612;2022-12-17T21:01:51;67.75;;;32.83;;
33459;SDS011;19795;53.160;6.612;2022-12-17T21:04:17;69.47;;;33.20;;
33459;SDS011;19795;53.160;6.612;2022-12-17T21:06:43;81.13;;;39.97;;
33459;SDS011;19795;53.160;6.612;2022-12-17T21:09:11;59.67;;;26.23;;
33459;SDS011;19795;53.160;6.612;2022-12-17T21:11:37;76.65;;;38.25;;
33459;SDS011;19795;53.160;6.612;2022-12-17T21:14:05;78.50;;;38.50;;
33459;SDS011;19795;53.160;6.612;2022-12-17T21:16:33;77.88;;;38.65;;
33459;SDS011;19795;53.160;6.612;2022-12-17T21:19:00;73.22;;;35.05;;
33459;SDS011;19795;53.160;6.612;2022-12-17T21:21:28;73.35;;;35.35;;
33459;SDS011;19795;53.160;6.612;2022-12-17T21:23:56;74.75;;;36.03;;
33459;SDS011;19795;53.160;6.612;2022-12-17T21:26:26;79.63;;;37.47;;
33459;SDS011;19795;53.160;6.612;2022-12-17T21:28:54;72.63;;;36.22;;
33459;SDS011;19795;53.160;6.612;2022-12-17T21:31:43;77.75;;;36.25;;
33459;SDS011;19795;53.160;6.612;2022-12-17T21:34:12;74.13;;;36.53;;
33459;SDS011;19795;53.160;6.612;2022-12-17T21:36:40;78.50;;;37.33;;
33459;SDS011;19795;53.160;6.612;2022-12-17T21:39:06;70.82;;;35.28;;
33459;SDS011;19795;53.160;6.612;2022-12-17T21:41:33;71.93;;;33.08;;
33459;SDS011;19795;53.160;6.612;2022-12-17T21:44:01;72.28;;;35.08;;
33459;SDS011;19795;53.160;6.612;2022-12-17T21:46:29;73.57;;;34.00;;
33459;SDS011;19795;53.160;6.612;2022-12-17T21:48:56;68.85;;;30.85;;
33459;SDS011;19795;53.160;6.612;2022-12-17T21:51:23;71.40;;;34.30;;
33459;SDS011;19795;53.160;6.612;2022-12-17T21:53:56;69.82;;;34.65;;
33459;SDS011;19795;53.160;6.612;2022-12-17T21:56:23;67.28;;;32.50;;
33459;SDS011;19795;53.160;6.612;2022-12-17T21:58:49;74.07;;;33.50;;
33459;SDS011;19795;53.160;6.612;2022-12-17T22:01:24;84.75;;;37.53;;
33459;SDS011;19795;53.160;6.612;2022-12-17T22:03:52;69.45;;;32.90;;
33459;SDS011;19795;53.160;6.612;2022-12-17T22:06:19;74.47;;;36.13;;
33459;SDS011;19795;53.160;6.612;2022-12-17T22:08:46;73.82;;;34.38;;
33459;SDS011;19795;53.160;6.612;2022-12-17T22:11:13;75.57;;;34.80;;
33459;SDS011;19795;53.160;6.612;2022-12-17T22:13:40;68.28;;;29.67;;
33459;SDS011;19795;53.160;6.612;2022-12-17T22:16:25;81.72;;;36.05;;
33459;SDS011;19795;53.160;6.612;2022-12-17T22:18:52;78.13;;;35.42;;
33459;SDS011;19795;53.160;6.612;2022-12-17T22:21:18;82.97;;;34.15;;
33459;SDS011;19795;53.160;6.612;2022-12-17T22:23:45;78.10;;;34.63;;
33459;SDS011;19795;53.160;6.612;2022-12-17T22:26:11;76.20;;;33.40;;
33459;SDS011;19795;53.160;6.612;2022-12-17T22:28:39;86.38;;;34.50;;
33459;SDS011;19795;53.160;6.612;2022-12-17T22:31:06;87.25;;;37.30;;
33459;SDS011;19795;53.160;6.612;2022-12-17T22:33:52;80.85;;;34.70;;
33459;SDS011;19795;53.160;6.612;2022-12-17T22:36:18;70.50;;;31.25;;
